sensor_id;sensor_type;location;lat;lon;timestamp;temperature;humidity
2565;DHT22;1292;48.020;7.822;2023-09-19T05:45:19;18.20;99.90
2565;DHT22;1292;48.020;7.822;2023-09-19T05:47:47;18.30;99.90
2565;DHT22;1292;48.020;7.822;2023-09-19T05:50:15;18.30;99.90
2565;DHT22;1292;48.020;7.822;2023-09-19T05:52:42;18.30;99.90
2565;DHT22;1292;48.020;7.822;2023-09-19T05:55:09;18.30;99.90
2565;DHT22;1292;48.020;7.822;2023-09-19T05:57:37;18.20;99.90
2565;DHT22;1292;48.020;7.822;2023-09-19T06:00:05;18.30;99.90
2565;DHT22;1292;48.020;7.822;2023-09-19T06:02:35;18.30;99.90
2565;DHT22;1292;48.020;7.822;2023-09-19T06:05:04;18.40;99.90
2565;DHT22;1292;48.020;7.822;2023-09-19T06:07:31;18.30;99.90
2565;DHT22;1292;48.020;7.822;2023-09-19T06:10:02;18.30;99.90
2565;DHT22;1292;48.020;7.822;2023-09-19T06:12:31;18.30;99.90
2565;DHT22;1292;48.020;7.822;2023-09-19T06:14:58;18.30;99.90
2565;DHT22;1292;48.020;7.822;2023-09-19T06:17:25;18.20;99.90
2565;DHT22;1292;48.020;7.822;2023-09-19T06:19:54;18.30;99.90
2565;DHT22;1292;48.020;7.822;2023-09-19T06:22:21;18.20;99.90
2565;DHT22;1292;48.020;7.822;2023-09-19T06:24:50;18.20;99.90
2565;DHT22;1292;48.020;7.822;2023-09-19T06:27:16;18.20;99.90
2565;DHT22;1292;48.020;7.822;2023-09-19T06:29:43;18.20;99.90
2565;DHT22;1292;48.020;7.822;2023-09-19T06:32:11;18.30;99.90
2565;DHT22;1292;48.020;7.822;2023-09-19T06:34:38;18.40;99.90
2565;DHT22;1292;48.020;7.822;2023-09-19T06:37:10;18.40;99.90
2565;DHT22;1292;48.020;7.822;2023-09-19T06:39:40;18.30;99.90
2565;DHT22;1292;48.020;7.822;2023-09-19T06:42:07;18.40;99.90
2565;DHT22;1292;48.020;7.822;2023-09-19T06:44:34;18.40;99.90
2565;DHT22;1292;48.020;7.822;2023-09-19T06:47:01;18.40;99.90
2565;DHT22;1292;48.020;7.822;2023-09-19T06:49:28;18.50;99.90
2565;DHT22;1292;48.020;7.822;2023-09-19T06:51:56;18.40;99.90
2565;DHT22;1292;48.020;7.822;2023-09-19T06:54:25;18.40;99.90
2565;DHT22;1292;48.020;7.822;2023-09-19T06:56:53;18.40;99.90
2565;DHT22;1292;48.020;7.822;2023-09-19T06:59:20;18.50;99.90
2565;DHT22;1292;48.020;7.822;2023-09-19T07:01:47;18.60;99.90
2565;DHT22;1292;48.020;7.822;2023-09-19T07:04:14;18.60;99.90
2565;DHT22;1292;48.020;7.822;2023-09-19T07:06:42;18.70;99.90
2565;DHT22;1292;48.020;7.822;2023-09-19T07:09:11;18.70;99.90
2565;DHT22;1292;48.020;7.822;2023-09-19T07:11:40;18.70;99.90
2565;DHT22;1292;48.020;7.822;2023-09-19T07:14:06;18.60;99.90
2565;DHT22;1292;48.020;7.822;2023-09-19T07:16:33;18.60;99.90
2565;DHT22;1292;48.020;7.822;2023-09-19T07:19:01;18.50;99.90
2565;DHT22;1292;48.020;7.822;2023-09-19T07:21:29;18.40;99.90
2565;DHT22;1292;48.020;7.822;2023-09-19T07:23:55;18.40;99.90
2565;DHT22;1292;48.020;7.822;2023-09-19T07:26:22;18.50;99.90
2565;DHT22;1292;48.020;7.822;2023-09-19T07:28:52;18.50;99.90
2565;DHT22;1292;48.020;7.822;2023-09-19T07:31:19;18.50;99.90
2565;DHT22;1292;48.020;7.822;2023-09-19T07:33:45;18.50;99.90
2565;DHT22;1292;48.020;7.822;2023-09-19T07:36:12;18.60;99.90
2565;DHT22;1292;48.020;7.822;2023-09-19T07:38:39;18.70;99.90
2565;DHT22;1292;48.020;7.822;2023-09-19T07:41:06;18.80;99.90
2565;DHT22;1292;48.020;7.822;2023-09-19T07:43:34;18.70;99.90
2565;DHT22;1292;48.020;7.822;2023-09-19T07:46:04;18.80;99.90
2565;DHT22;1292;48.020;7.822;2023-09-19T07:48:32;18.80;99.90
2565;DHT22;1292;48.020;7.822;2023-09-19T07:51:02;18.80;99.90
2565;DHT22;1292;48.020;7.822;2023-09-19T07:53:29;18.90;99.90
2565;DHT22;1292;48.020;7.822;2023-09-19T07:56:04;19.00;99.90
2565;DHT22;1292;48.020;7.822;2023-09-19T07:58:31;19.10;99.90
2565;DHT22;1292;48.020;7.822;2023-09-19T08:01:04;19.00;99.90
2565;DHT22;1292;48.020;7.822;2023-09-19T08:03:30;19.00;99.90
2565;DHT22;1292;48.020;7.822;2023-09-19T08:05:57;19.00;99.90
2565;DHT22;1292;48.020;7.822;2023-09-19T08:08:25;19.10;99.90
2565;DHT22;1292;48.020;7.822;2023-09-19T08:10:53;19.10;99.90
2565;DHT22;1292;48.020;7.822;2023-09-19T08:13:21;19.10;99.90
2565;DHT22;1292;48.020;7.822;2023-09-19T08:15:48;19.20;99.90
2565;DHT22;1292;48.020;7.822;2023-09-19T08:18:17;19.10;99.90
2565;DHT22;1292;48.020;7.822;2023-09-19T08:20:49;19.20;99.90
2565;DHT22;1292;48.020;7.822;2023-09-19T08:23:16;19.20;99.90
2565;DHT22;1292;48.020;7.822;2023-09-19T08:25:43;19.30;99.90
2565;DHT22;1292;48.020;7.822;2023-09-19T08:28:10;19.30;99.90
2565;DHT22;1292;48.020;7.822;2023-09-19T08:30:43;19.30;99.90
2565;DHT22;1292;48.020;7.822;2023-09-19T08:33:09;19.30;99.90
2565;DHT22;1292;48.020;7.822;2023-09-19T08:35:38;19.30;99.90
2565;DHT22;1292;48.020;7.822;2023-09-19T08:38:06;19.40;99.90
2565;DHT22;1292;48.020;7.822;2023-09-19T08:40:37;19.40;99.90
2565;DHT22;1292;48.020;7.822;2023-09-19T08:43:05;19.40;99.90
2565;DHT22;1292;48.020;7.822;2023-09-19T08:45:32;19.50;99.90
2565;DHT22;1292;48.020;7.822;2023-09-19T08:48:06;19.60;99.90
2565;DHT22;1292;48.020;7.822;2023-09-19T08:50:43;19.70;99.90
2565;DHT22;1292;48.020;7.822;2023-09-19T08:53:11;19.70;99.90
2565;DHT22;1292;48.020;7.822;2023-09-19T08:55:43;19.80;99.90
2565;DHT22;1292;48.020;7.822;2023-09-19T08:58:14;19.90;99.90
2565;DHT22;1292;48.020;7.822;2023-09-19T09:00:45;20.00;99.90
2565;DHT22;1292;48.020;7.822;2023-09-19T09:03:16;20.10;99.90
2565;DHT22;1292;48.020;7.822;2023-09-19T09:05:46;20.20;99.90
2565;DHT22;1292;48.020;7.822;2023-09-19T09:08:15;20.50;99.90
2565;DHT22;1292;48.020;7.822;2023-09-19T09:10:44;20.80;99.90
2565;DHT22;1292;48.020;7.822;2023-09-19T09:13:12;21.00;99.90
2565;DHT22;1292;48.020;7.822;2023-09-19T09:15:41;21.10;99.90
2565;DHT22;1292;48.020;7.822;2023-09-19T09:18:10;21.10;99.90
2565;DHT22;1292;48.020;7.822;2023-09-19T09:20:37;21.20;99.90
2565;DHT22;1292;48.020;7.822;2023-09-19T09:23:05;21.30;99.90
2565;DHT22;1292;48.020;7.822;2023-09-19T09:25:49;21.30;99.90
2565;DHT22;1292;48.020;7.822;2023-09-19T09:28:20;21.20;99.90
2565;DHT22;1292;48.020;7.822;2023-09-19T09:30:47;21.10;99.90
2565;DHT22;1292;48.020;7.822;2023-09-19T09:33:15;21.10;99.90
2565;DHT22;1292;48.020;7.822;2023-09-19T09:35:51;20.80;99.90
2565;DHT22;1292;48.020;7.822;2023-09-19T09:38:20;20.80;99.90
2565;DHT22;1292;48.020;7.822;2023-09-19T09:40:52;20.80;99.90
2565;DHT22;1292;48.020;7.822;2023-09-19T09:43:28;21.00;99.90
2565;DHT22;1292;48.020;7.822;2023-09-19T09:46:09;21.20;99.90
2565;DHT22;1292;48.020;7.822;2023-09-19T09:49:00;21.30;99.90
2565;DHT22;1292;48.020;7.822;2023-09-19T09:51:45;21.50;99.90
2565;DHT22;1292;48.020;7.822;2023-09-19T09:54:16;21.70;99.90
2565;DHT22;1292;48.020;7.822;2023-09-19T09:56:55;21.70;99.90
2565;DHT22;1292;48.020;7.822;2023-09-19T09:59:49;21.70;99.90
2565;DHT22;1292;48.020;7.822;2023-09-19T10:02:24;21.70;99.90
2565;DHT22;1292;48.020;7.822;2023-09-19T10:04:54;21.70;99.90
2565;DHT22;1292;48.020;7.822;2023-09-19T10:07:36;21.70;99.90
2565;DHT22;1292;48.020;7.822;2023-09-19T10:10:08;21.60;99.90
2565;DHT22;1292;48.020;7.822;2023-09-19T10:12:47;21.60;99.90
2565;DHT22;1292;48.020;7.822;2023-09-19T10:15:16;21.70;99.90
2565;DHT22;1292;48.020;7.822;2023-09-19T10:17:47;21.70;99.90
2565;DHT22;1292;48.020;7.822;2023-09-19T10:20:15;21.50;99.90
2565;DHT22;1292;48.020;7.822;2023-09-19T10:22:50;21.30;99.90
2565;DHT22;1292;48.020;7.822;2023-09-19T10:25:26;21.40;99.90
2565;DHT22;1292;48.020;7.822;2023-09-19T10:27:54;21.50;99.90
2565;DHT22;1292;48.020;7.822;2023-09-19T10:30:24;21.50;99.90
2565;DHT22;1292;48.020;7.822;2023-09-19T10:33:00;21.30;99.90
2565;DHT22;1292;48.020;7.822;2023-09-19T10:35:27;21.40;99.90
2565;DHT22;1292;48.020;7.822;2023-09-19T10:37:57;21.40;99.90
2565;DHT22;1292;48.020;7.822;2023-09-19T10:40:27;21.50;99.90
2565;DHT22;1292;48.020;7.822;2023-09-19T10:43:01;21.70;99.90
2565;DHT22;1292;48.020;7.822;2023-09-19T10:45:30;21.70;99.90
2565;DHT22;1292;48.020;7.822;2023-09-19T10:47:58;21.80;99.90
2565;DHT22;1292;48.020;7.822;2023-09-19T10:50:28;21.80;99.90
2565;DHT22;1292;48.020;7.822;2023-09-19T10:53:00;21.80;99.90
2565;DHT22;1292;48.020;7.822;2023-09-19T10:55:32;21.70;99.90
2565;DHT22;1292;48.020;7.822;2023-09-19T10:58:01;21.60;99.90
2565;DHT22;1292;48.020;7.822;2023-09-19T11:00:50;21.50;99.90
2565;DHT22;1292;48.020;7.822;2023-09-19T11:03:18;21.50;99.90
2565;DHT22;1292;48.020;7.822;2023-09-19T11:06:09;21.70;99.90
2565;DHT22;1292;48.020;7.822;2023-09-19T11:08:55;21.90;99.90
2565;DHT22;1292;48.020;7.822;2023-09-19T11:11:57;22.20;99.90
2565;DHT22;1292;48.020;7.822;2023-09-19T11:14:40;22.50;99.90
2565;DHT22;1292;48.020;7.822;2023-09-19T11:17:40;22.60;99.90
2565;DHT22;1292;48.020;7.822;2023-09-19T11:20:23;22.70;99.90
2565;DHT22;1292;48.020;7.822;2023-09-19T11:23:22;22.70;99.90
2565;DHT22;1292;48.020;7.822;2023-09-19T11:25:52;22.70;99.90
2565;DHT22;1292;48.020;7.822;2023-09-19T11:28:37;22.60;99.90
2565;DHT22;1292;48.020;7.822;2023-09-19T11:34:38;22.40;99.90
2565;DHT22;1292;48.020;7.822;2023-09-19T11:40:33;22.40;99.90
2565;DHT22;1292;48.020;7.822;2023-09-19T11:43:31;22.50;99.90
2565;DHT22;1292;48.020;7.822;2023-09-19T11:46:10;22.50;99.90
2565;DHT22;1292;48.020;7.822;2023-09-19T11:48:39;22.50;99.90
2565;DHT22;1292;48.020;7.822;2023-09-19T11:51:12;22.40;99.90
2565;DHT22;1292;48.020;7.822;2023-09-19T11:53:45;22.40;99.90
2565;DHT22;1292;48.020;7.822;2023-09-19T11:56:15;22.50;99.90
2565;DHT22;1292;48.020;7.822;2023-09-19T11:58:44;22.60;99.90
2565;DHT22;1292;48.020;7.822;2023-09-19T12:01:14;22.80;99.90
2565;DHT22;1292;48.020;7.822;2023-09-19T12:03:46;22.70;99.90
2565;DHT22;1292;48.020;7.822;2023-09-19T12:06:14;22.60;99.90
2565;DHT22;1292;48.020;7.822;2023-09-19T12:08:43;22.50;99.90
2565;DHT22;1292;48.020;7.822;2023-09-19T12:11:13;22.60;99.90
2565;DHT22;1292;48.020;7.822;2023-09-19T12:13:42;22.60;99.90
2565;DHT22;1292;48.020;7.822;2023-09-19T12:16:16;22.50;99.90
2565;DHT22;1292;48.020;7.822;2023-09-19T12:18:47;22.40;99.90
2565;DHT22;1292;48.020;7.822;2023-09-19T12:21:23;22.50;99.90
2565;DHT22;1292;48.020;7.822;2023-09-19T12:23:58;22.50;99.90
2565;DHT22;1292;48.020;7.822;2023-09-19T12:26:26;22.70;99.90
2565;DHT22;1292;48.020;7.822;2023-09-19T12:28:55;22.60;99.90
2565;DHT22;1292;48.020;7.822;2023-09-19T12:31:24;22.70;99.90
2565;DHT22;1292;48.020;7.822;2023-09-19T12:33:55;22.80;99.90
2565;DHT22;1292;48.020;7.822;2023-09-19T12:36:22;23.00;99.90
2565;DHT22;1292;48.020;7.822;2023-09-19T12:38:54;23.10;99.90
2565;DHT22;1292;48.020;7.822;2023-09-19T12:41:22;23.20;99.90
2565;DHT22;1292;48.020;7.822;2023-09-19T12:43:49;23.30;99.90
2565;DHT22;1292;48.020;7.822;2023-09-19T12:46:20;23.50;99.90
2565;DHT22;1292;48.020;7.822;2023-09-19T12:49:18;23.60;99.90
2565;DHT22;1292;48.020;7.822;2023-09-19T12:51:46;23.70;99.90
2565;DHT22;1292;48.020;7.822;2023-09-19T12:54:14;23.80;99.90
2565;DHT22;1292;48.020;7.822;2023-09-19T12:56:42;23.80;99.90
2565;DHT22;1292;48.020;7.822;2023-09-19T12:59:11;23.90;99.90
2565;DHT22;1292;48.020;7.822;2023-09-19T13:01:39;23.90;99.90
2565;DHT22;1292;48.020;7.822;2023-09-19T13:04:15;24.00;99.90
2565;DHT22;1292;48.020;7.822;2023-09-19T13:06:45;24.10;99.90
2565;DHT22;1292;48.020;7.822;2023-09-19T13:09:14;24.10;99.90
2565;DHT22;1292;48.020;7.822;2023-09-19T13:11:42;24.10;99.90
2565;DHT22;1292;48.020;7.822;2023-09-19T13:14:17;24.10;99.90
2565;DHT22;1292;48.020;7.822;2023-09-19T13:16:57;24.10;99.90
2565;DHT22;1292;48.020;7.822;2023-09-19T13:19:40;24.10;99.90
2565;DHT22;1292;48.020;7.822;2023-09-19T13:22:38;24.00;99.90
2565;DHT22;1292;48.020;7.822;2023-09-19T13:25:07;24.00;99.90
2565;DHT22;1292;48.020;7.822;2023-09-19T13:27:39;24.00;99.90
2565;DHT22;1292;48.020;7.822;2023-09-19T13:30:07;24.10;99.90
2565;DHT22;1292;48.020;7.822;2023-09-19T13:32:34;24.10;99.90
2565;DHT22;1292;48.020;7.822;2023-09-19T13:35:03;24.20;99.90
2565;DHT22;1292;48.020;7.822;2023-09-19T13:37:30;24.00;99.90
2565;DHT22;1292;48.020;7.822;2023-09-19T13:39:57;24.10;99.90
2565;DHT22;1292;48.020;7.822;2023-09-19T13:42:25;24.10;99.90
2565;DHT22;1292;48.020;7.822;2023-09-19T13:44:55;24.10;99.90
2565;DHT22;1292;48.020;7.822;2023-09-19T13:47:22;23.90;99.90
2565;DHT22;1292;48.020;7.822;2023-09-19T13:49:52;23.90;99.90
2565;DHT22;1292;48.020;7.822;2023-09-19T13:52:20;24.00;99.90
2565;DHT22;1292;48.020;7.822;2023-09-19T13:54:49;24.00;99.90
2565;DHT22;1292;48.020;7.822;2023-09-19T13:57:16;23.90;99.90
2565;DHT22;1292;48.020;7.822;2023-09-19T13:59:43;23.90;99.90
2565;DHT22;1292;48.020;7.822;2023-09-19T14:02:10;23.90;99.90
2565;DHT22;1292;48.020;7.822;2023-09-19T14:04:39;23.90;99.90
2565;DHT22;1292;48.020;7.822;2023-09-19T14:07:07;23.90;99.90
2565;DHT22;1292;48.020;7.822;2023-09-19T14:09:35;24.00;99.90
2565;DHT22;1292;48.020;7.822;2023-09-19T14:12:02;23.90;99.90
2565;DHT22;1292;48.020;7.822;2023-09-19T14:14:29;23.90;99.90
2565;DHT22;1292;48.020;7.822;2023-09-19T14:16:56;24.00;99.90
2565;DHT22;1292;48.020;7.822;2023-09-19T14:19:26;24.00;99.90
2565;DHT22;1292;48.020;7.822;2023-09-19T14:21:53;23.90;99.90
2565;DHT22;1292;48.020;7.822;2023-09-19T14:24:21;23.90;99.90
2565;DHT22;1292;48.020;7.822;2023-09-19T14:26:49;23.90;99.90
2565;DHT22;1292;48.020;7.822;2023-09-19T14:29:16;23.90;99.90
2565;DHT22;1292;48.020;7.822;2023-09-19T14:31:43;23.80;99.90
2565;DHT22;1292;48.020;7.822;2023-09-19T14:34:10;23.80;99.90
2565;DHT22;1292;48.020;7.822;2023-09-19T14:36:37;23.80;99.90
2565;DHT22;1292;48.020;7.822;2023-09-19T14:39:05;23.80;99.90
2565;DHT22;1292;48.020;7.822;2023-09-19T14:41:34;23.70;99.90
2565;DHT22;1292;48.020;7.822;2023-09-19T14:44:04;23.80;99.90
2565;DHT22;1292;48.020;7.822;2023-09-19T14:46:31;23.70;99.90
2565;DHT22;1292;48.020;7.822;2023-09-19T14:48:58;23.70;99.90
2565;DHT22;1292;48.020;7.822;2023-09-19T14:51:25;23.70;99.90
2565;DHT22;1292;48.020;7.822;2023-09-19T14:53:53;23.60;99.90
2565;DHT22;1292;48.020;7.822;2023-09-19T14:56:20;23.70;99.90
2565;DHT22;1292;48.020;7.822;2023-09-19T14:58:47;23.60;99.90
2565;DHT22;1292;48.020;7.822;2023-09-19T15:01:16;23.60;99.90
2565;DHT22;1292;48.020;7.822;2023-09-19T15:03:43;23.60;99.90
2565;DHT22;1292;48.020;7.822;2023-09-19T15:06:11;23.60;99.90
2565;DHT22;1292;48.020;7.822;2023-09-19T15:08:40;23.50;99.90
2565;DHT22;1292;48.020;7.822;2023-09-19T15:11:11;23.50;99.90
2565;DHT22;1292;48.020;7.822;2023-09-19T15:13:38;23.50;99.90
2565;DHT22;1292;48.020;7.822;2023-09-19T15:16:06;23.60;99.90
2565;DHT22;1292;48.020;7.822;2023-09-19T15:18:36;23.60;99.90
2565;DHT22;1292;48.020;7.822;2023-09-19T15:21:05;23.60;99.90
2565;DHT22;1292;48.020;7.822;2023-09-19T15:23:32;23.60;99.90
2565;DHT22;1292;48.020;7.822;2023-09-19T15:26:00;23.50;99.90
2565;DHT22;1292;48.020;7.822;2023-09-19T15:28:27;23.50;99.90
2565;DHT22;1292;48.020;7.822;2023-09-19T15:30:58;23.50;99.90
2565;DHT22;1292;48.020;7.822;2023-09-19T15:33:25;23.40;99.90
2565;DHT22;1292;48.020;7.822;2023-09-19T15:36:02;23.40;99.90
2565;DHT22;1292;48.020;7.822;2023-09-19T15:38:29;23.40;99.90
2565;DHT22;1292;48.020;7.822;2023-09-19T15:40:57;23.40;99.90
2565;DHT22;1292;48.020;7.822;2023-09-19T15:43:24;23.40;99.90
2565;DHT22;1292;48.020;7.822;2023-09-19T15:45:51;23.40;99.90
2565;DHT22;1292;48.020;7.822;2023-09-19T15:48:18;23.30;99.90
2565;DHT22;1292;48.020;7.822;2023-09-19T15:50:47;23.40;99.90
2565;DHT22;1292;48.020;7.822;2023-09-19T15:53:15;23.30;99.90
2565;DHT22;1292;48.020;7.822;2023-09-19T15:55:42;23.20;99.90
2565;DHT22;1292;48.020;7.822;2023-09-19T15:58:10;23.20;99.90
2565;DHT22;1292;48.020;7.822;2023-09-19T16:00:40;23.20;99.90
2565;DHT22;1292;48.020;7.822;2023-09-19T16:03:07;23.10;99.90
2565;DHT22;1292;48.020;7.822;2023-09-19T16:05:36;23.10;99.90
2565;DHT22;1292;48.020;7.822;2023-09-19T16:08:05;23.10;99.90
2565;DHT22;1292;48.020;7.822;2023-09-19T16:10:35;23.10;99.90
2565;DHT22;1292;48.020;7.822;2023-09-19T16:13:03;23.10;99.90
2565;DHT22;1292;48.020;7.822;2023-09-19T16:15:30;23.20;99.90
2565;DHT22;1292;48.020;7.822;2023-09-19T16:17:58;23.10;99.90
2565;DHT22;1292;48.020;7.822;2023-09-19T16:20:26;23.10;99.90
2565;DHT22;1292;48.020;7.822;2023-09-19T16:22:53;23.10;99.90
2565;DHT22;1292;48.020;7.822;2023-09-19T16:25:20;23.10;99.90
2565;DHT22;1292;48.020;7.822;2023-09-19T16:27:48;23.00;99.90
2565;DHT22;1292;48.020;7.822;2023-09-19T16:30:15;23.00;99.90
2565;DHT22;1292;48.020;7.822;2023-09-19T16:32:44;23.00;99.90
2565;DHT22;1292;48.020;7.822;2023-09-19T16:35:10;23.00;99.90
2565;DHT22;1292;48.020;7.822;2023-09-19T16:37:38;22.90;99.90
2565;DHT22;1292;48.020;7.822;2023-09-19T16:40:06;22.90;99.90
2565;DHT22;1292;48.020;7.822;2023-09-19T16:42:34;22.80;99.90
2565;DHT22;1292;48.020;7.822;2023-09-19T16:45:02;22.80;99.90
2565;DHT22;1292;48.020;7.822;2023-09-19T16:47:30;22.70;99.90
2565;DHT22;1292;48.020;7.822;2023-09-19T16:49:57;22.80;99.90
2565;DHT22;1292;48.020;7.822;2023-09-19T16:52:24;22.70;99.90
2565;DHT22;1292;48.020;7.822;2023-09-19T16:54:51;22.60;99.90
2565;DHT22;1292;48.020;7.822;2023-09-19T16:57:18;22.60;99.90
2565;DHT22;1292;48.020;7.822;2023-09-19T16:59:45;22.60;99.90
2565;DHT22;1292;48.020;7.822;2023-09-19T17:02:13;22.40;99.90
2565;DHT22;1292;48.020;7.822;2023-09-19T17:04:41;22.30;99.90
2565;DHT22;1292;48.020;7.822;2023-09-19T17:07:08;22.30;99.90
2565;DHT22;1292;48.020;7.822;2023-09-19T17:09:35;22.30;99.90
2565;DHT22;1292;48.020;7.822;2023-09-19T17:12:02;22.30;99.90
2565;DHT22;1292;48.020;7.822;2023-09-19T17:14:29;22.30;99.90
2565;DHT22;1292;48.020;7.822;2023-09-19T17:17:01;22.20;99.90
2565;DHT22;1292;48.020;7.822;2023-09-19T17:19:29;22.10;99.90
2565;DHT22;1292;48.020;7.822;2023-09-19T17:21:56;22.20;99.90
2565;DHT22;1292;48.020;7.822;2023-09-19T17:24:24;22.10;99.90
2565;DHT22;1292;48.020;7.822;2023-09-19T17:26:50;22.10;99.90
2565;DHT22;1292;48.020;7.822;2023-09-19T17:29:17;22.10;99.90
2565;DHT22;1292;48.020;7.822;2023-09-19T17:31:45;22.00;99.90
2565;DHT22;1292;48.020;7.822;2023-09-19T17:34:12;22.00;99.90
2565;DHT22;1292;48.020;7.822;2023-09-19T17:36:42;21.90;99.90
2565;DHT22;1292;48.020;7.822;2023-09-19T17:39:09;21.90;99.90
2565;DHT22;1292;48.020;7.822;2023-09-19T17:41:40;21.90;99.90
2565;DHT22;1292;48.020;7.822;2023-09-19T17:44:07;21.90;99.90
2565;DHT22;1292;48.020;7.822;2023-09-19T17:46:37;21.80;99.90
2565;DHT22;1292;48.020;7.822;2023-09-19T17:49:04;21.80;99.90
2565;DHT22;1292;48.020;7.822;2023-09-19T17:51:31;21.70;99.90
2565;DHT22;1292;48.020;7.822;2023-09-19T17:53:58;21.60;99.90
2565;DHT22;1292;48.020;7.822;2023-09-19T17:56:28;21.60;99.90
2565;DHT22;1292;48.020;7.822;2023-09-19T17:58:56;21.50;99.90
2565;DHT22;1292;48.020;7.822;2023-09-19T18:01:25;21.50;99.90
2565;DHT22;1292;48.020;7.822;2023-09-19T18:03:53;21.40;99.90
2565;DHT22;1292;48.020;7.822;2023-09-19T18:06:23;21.40;99.90
2565;DHT22;1292;48.020;7.822;2023-09-19T18:08:51;21.30;99.90
2565;DHT22;1292;48.020;7.822;2023-09-19T18:11:20;21.30;99.90
2565;DHT22;1292;48.020;7.822;2023-09-19T18:13:50;21.20;99.90
2565;DHT22;1292;48.020;7.822;2023-09-19T18:16:20;21.10;99.90
2565;DHT22;1292;48.020;7.822;2023-09-19T18:18:50;21.10;99.90
2565;DHT22;1292;48.020;7.822;2023-09-19T18:21:18;21.00;99.90
2565;DHT22;1292;48.020;7.822;2023-09-19T18:23:51;21.00;99.90
2565;DHT22;1292;48.020;7.822;2023-09-19T18:26:17;21.00;99.90
2565;DHT22;1292;48.020;7.822;2023-09-19T18:28:46;20.90;99.90
2565;DHT22;1292;48.020;7.822;2023-09-19T18:31:12;20.90;99.90
2565;DHT22;1292;48.020;7.822;2023-09-19T18:33:40;20.80;99.90
2565;DHT22;1292;48.020;7.822;2023-09-19T18:36:07;20.80;99.90
2565;DHT22;1292;48.020;7.822;2023-09-19T18:38:37;20.80;99.90
2565;DHT22;1292;48.020;7.822;2023-09-19T18:41:06;20.70;99.90
2565;DHT22;1292;48.020;7.822;2023-09-19T18:43:33;20.70;99.90
2565;DHT22;1292;48.020;7.822;2023-09-19T18:46:04;20.70;99.90
2565;DHT22;1292;48.020;7.822;2023-09-19T18:48:34;20.60;99.90
2565;DHT22;1292;48.020;7.822;2023-09-19T18:51:04;20.60;99.90
2565;DHT22;1292;48.020;7.822;2023-09-19T18:53:31;20.60;99.90
2565;DHT22;1292;48.020;7.822;2023-09-19T18:56:03;20.50;99.90
2565;DHT22;1292;48.020;7.822;2023-09-19T18:58:31;20.50;99.90
2565;DHT22;1292;48.020;7.822;2023-09-19T19:01:02;20.50;99.90
2565;DHT22;1292;48.020;7.822;2023-09-19T19:03:29;20.40;99.90
2565;DHT22;1292;48.020;7.822;2023-09-19T19:05:57;20.40;99.90
2565;DHT22;1292;48.020;7.822;2023-09-19T19:08:24;20.40;99.90
2565;DHT22;1292;48.020;7.822;2023-09-19T19:10:51;20.30;99.90
2565;DHT22;1292;48.020;7.822;2023-09-19T19:13:18;20.30;99.90
2565;DHT22;1292;48.020;7.822;2023-09-19T19:15:44;20.30;99.90
2565;DHT22;1292;48.020;7.822;2023-09-19T19:18:13;20.30;99.90
2565;DHT22;1292;48.020;7.822;2023-09-19T19:20:40;20.20;99.90
2565;DHT22;1292;48.020;7.822;2023-09-19T19:23:07;20.20;99.90
2565;DHT22;1292;48.020;7.822;2023-09-19T19:25:36;20.10;99.90
2565;DHT22;1292;48.020;7.822;2023-09-19T19:28:03;20.10;99.90
2565;DHT22;1292;48.020;7.822;2023-09-19T19:30:31;20.00;99.90
2565;DHT22;1292;48.020;7.822;2023-09-19T19:32:58;20.00;99.90
2565;DHT22;1292;48.020;7.822;2023-09-19T19:35:26;19.90;99.90
2565;DHT22;1292;48.020;7.822;2023-09-19T19:37:54;19.80;99.90
2565;DHT22;1292;48.020;7.822;2023-09-19T19:40:21;19.80;99.90
2565;DHT22;1292;48.020;7.822;2023-09-19T19:42:48;19.70;99.90
2565;DHT22;1292;48.020;7.822;2023-09-19T19:45:15;19.70;99.90
2565;DHT22;1292;48.020;7.822;2023-09-19T19:47:42;19.70;99.90
2565;DHT22;1292;48.020;7.822;2023-09-19T19:50:09;19.60;99.90
2565;DHT22;1292;48.020;7.822;2023-09-19T19:52:38;19.50;99.90
2565;DHT22;1292;48.020;7.822;2023-09-19T19:55:05;19.50;99.90
2565;DHT22;1292;48.020;7.822;2023-09-19T19:57:32;19.40;99.90
2565;DHT22;1292;48.020;7.822;2023-09-19T20:00:00;19.40;99.90
2565;DHT22;1292;48.020;7.822;2023-09-19T20:02:31;19.40;99.90
2565;DHT22;1292;48.020;7.822;2023-09-19T20:04:59;19.30;99.90
2565;DHT22;1292;48.020;7.822;2023-09-19T20:07:26;19.30;99.90
2565;DHT22;1292;48.020;7.822;2023-09-19T20:09:55;19.20;99.90
2565;DHT22;1292;48.020;7.822;2023-09-19T20:12:22;19.20;99.90
2565;DHT22;1292;48.020;7.822;2023-09-19T20:14:49;19.20;99.90
2565;DHT22;1292;48.020;7.822;2023-09-19T20:17:16;19.10;99.90
2565;DHT22;1292;48.020;7.822;2023-09-19T20:19:43;19.20;99.90
2565;DHT22;1292;48.020;7.822;2023-09-19T20:22:10;19.10;99.90
2565;DHT22;1292;48.020;7.822;2023-09-19T20:24:38;19.10;99.90
2565;DHT22;1292;48.020;7.822;2023-09-19T20:27:07;19.10;99.90
2565;DHT22;1292;48.020;7.822;2023-09-19T20:29:34;19.00;99.90
2565;DHT22;1292;48.020;7.822;2023-09-19T20:32:03;19.00;99.90
2565;DHT22;1292;48.020;7.822;2023-09-19T20:34:30;19.00;99.90
2565;DHT22;1292;48.020;7.822;2023-09-19T20:36:57;18.70;99.90
2565;DHT22;1292;48.020;7.822;2023-09-19T20:39:25;18.50;99.90
2565;DHT22;1292;48.020;7.822;2023-09-19T20:41:53;18.30;99.90
2565;DHT22;1292;48.020;7.822;2023-09-19T20:44:21;18.30;99.90
2565;DHT22;1292;48.020;7.822;2023-09-19T20:46:50;18.20;99.90
2565;DHT22;1292;48.020;7.822;2023-09-19T20:49:19;18.20;99.90
2565;DHT22;1292;48.020;7.822;2023-09-19T20:51:46;18.10;99.90
2565;DHT22;1292;48.020;7.822;2023-09-19T20:54:13;18.10;99.90
2565;DHT22;1292;48.020;7.822;2023-09-19T20:56:42;18.00;99.90
2565;DHT22;1292;48.020;7.822;2023-09-19T20:59:09;18.00;99.90
2565;DHT22;1292;48.020;7.822;2023-09-19T21:01:38;18.00;99.90
2565;DHT22;1292;48.020;7.822;2023-09-19T21:04:05;17.90;99.90
2565;DHT22;1292;48.020;7.822;2023-09-19T21:06:32;18.00;99.90
2565;DHT22;1292;48.020;7.822;2023-09-19T21:08:59;18.10;99.90
2565;DHT22;1292;48.020;7.822;2023-09-19T21:11:26;18.20;99.90
2565;DHT22;1292;48.020;7.822;2023-09-19T21:13:53;18.30;99.90
2565;DHT22;1292;48.020;7.822;2023-09-19T21:16:20;18.30;99.90
2565;DHT22;1292;48.020;7.822;2023-09-19T21:18:49;18.30;99.90
2565;DHT22;1292;48.020;7.822;2023-09-19T21:21:16;18.40;99.90
2565;DHT22;1292;48.020;7.822;2023-09-19T21:23:44;18.40;99.90
2565;DHT22;1292;48.020;7.822;2023-09-19T21:26:11;18.30;99.90
2565;DHT22;1292;48.020;7.822;2023-09-19T21:28:39;18.30;99.90
2565;DHT22;1292;48.020;7.822;2023-09-19T21:31:08;18.40;99.90
2565;DHT22;1292;48.020;7.822;2023-09-19T21:33:36;18.40;99.90
2565;DHT22;1292;48.020;7.822;2023-09-19T21:36:05;18.40;99.90
2565;DHT22;1292;48.020;7.822;2023-09-19T21:38:34;18.30;99.90
